createdAt,value
2023-09-18T00:00:53.008Z,99593.84
2023-09-18T00:03:21.866Z,99600.13
2023-09-18T00:05:49.377Z,99602.34
2023-09-18T00:08:17.679Z,99597.47
2023-09-18T00:10:50.402Z,99607.03
2023-09-18T00:13:17.971Z,99599.44
2023-09-18T00:15:49.953Z,99597.59
2023-09-18T00:18:17.598Z,99597.31
2023-09-18T00:20:46.855Z,99593.00
2023-09-18T00:23:14.339Z,99594.09
2023-09-18T00:25:44.336Z,99598.22
2023-09-18T00:28:12.672Z,99589.81
2023-09-18T00:30:49.140Z,99602.34
2023-09-18T00:33:17.412Z,99593.13
2023-09-18T00:35:52.211Z,99597.47
2023-09-18T00:38:20.793Z,99598.28
2023-09-18T00:40:49.373Z,99599.09
2023-09-18T00:43:16.642Z,99595.31
2023-09-18T00:45:46.533Z,99592.63
2023-09-18T00:48:15.889Z,99592.66
2023-09-18T00:50:45.335Z,99588.09
2023-09-18T00:53:16.008Z,99586.22
2023-09-18T00:55:43.325Z,99592.75
2023-09-18T00:58:11.413Z,99588.41
2023-09-18T01:00:40.004Z,99603.13
2023-09-18T01:03:07.742Z,99585.50
2023-09-18T01:05:35.526Z,99583.91
2023-09-18T01:08:03.142Z,99586.09
2023-09-18T01:10:37.666Z,99591.25
2023-09-18T01:13:17.327Z,99589.38
2023-09-18T01:15:58.395Z,99588.28
2023-09-18T01:18:25.959Z,99573.34
2023-09-18T01:20:53.177Z,99565.44
2023-09-18T01:23:20.410Z,99576.31
2023-09-18T01:25:48.133Z,99571.97
2023-09-18T01:28:17.427Z,99568.72
2023-09-18T01:30:45.953Z,99559.19
2023-09-18T01:33:15.185Z,99564.63
2023-09-18T01:35:43.645Z,99566.75
2023-09-18T01:38:12.489Z,99561.59
2023-09-18T01:40:40.727Z,99572.44
2023-09-18T01:43:08.223Z,99564.84
2023-09-18T01:45:35.921Z,99558.03
2023-09-18T01:48:07.174Z,99562.63
2023-09-18T01:50:34.357Z,99555.00
2023-09-18T01:53:01.649Z,99555.28
2023-09-18T01:55:30.095Z,99554.72
2023-09-18T01:57:57.782Z,99556.63
2023-09-18T02:00:25.202Z,99553.09
2023-09-18T02:03:15.638Z,99546.84
2023-09-18T02:05:43.079Z,99549.56
2023-09-18T02:08:10.484Z,99547.91
2023-09-18T02:10:37.612Z,99538.13
2023-09-18T02:13:05.374Z,99544.38
2023-09-18T02:15:33.772Z,99536.25
2023-09-18T02:18:01.390Z,99529.16
2023-09-18T02:20:28.909Z,99532.44
2023-09-18T02:22:56.925Z,99537.59
2023-09-18T02:25:44.027Z,99533.00
2023-09-18T02:28:11.401Z,99532.44
2023-09-18T02:30:38.655Z,99524.28
2023-09-18T02:33:06.184Z,99535.69
2023-09-18T02:35:36.118Z,99535.13
2023-09-18T02:38:04.074Z,99532.97
2023-09-18T02:40:32.035Z,99528.56
2023-09-18T02:42:59.581Z,99532.88
2023-09-18T02:45:26.748Z,99529.63
2023-09-18T02:47:53.848Z,99536.13
2023-09-18T02:50:21.197Z,99534.25
2023-09-18T02:52:48.434Z,99529.63
2023-09-18T02:55:16.003Z,99529.63
2023-09-18T02:57:43.744Z,99523.13
2023-09-18T03:00:11.532Z,99522.28
2023-09-18T03:02:38.916Z,99513.34
2023-09-18T03:05:06.436Z,99518.50
2023-09-18T03:07:33.606Z,99519.56
2023-09-18T03:10:00.823Z,99522.28
2023-09-18T03:12:29.454Z,99519.84
2023-09-18T03:14:56.530Z,99516.03
2023-09-18T03:17:23.878Z,99522.28
2023-09-18T03:19:51.211Z,99526.38
2023-09-18T03:22:18.445Z,99522.31
2023-09-18T03:24:45.953Z,99519.88
2023-09-18T03:27:13.181Z,99538.66
2023-09-18T03:29:40.766Z,99527.53
2023-09-18T03:32:08.312Z,99527.53
2023-09-18T03:34:36.093Z,99532.16
2023-09-18T03:37:03.226Z,99530.00
2023-09-18T03:39:30.371Z,99531.38
2023-09-18T03:41:57.462Z,99528.38
2023-09-18T03:44:24.602Z,99528.69
2023-09-18T03:46:52.638Z,99528.16
2023-09-18T03:49:19.637Z,99528.72
2023-09-18T03:51:47.113Z,99524.66
2023-09-18T03:54:14.105Z,99519.78
2023-09-18T03:56:42.017Z,99526.31
2023-09-18T03:59:09.260Z,99527.41
2023-09-18T04:01:36.378Z,99523.06
2023-09-18T04:04:05.767Z,99521.44
2023-09-18T04:06:44.669Z,99529.91
2023-09-18T04:09:11.805Z,99520.94
2023-09-18T04:11:39.139Z,99527.19
2023-09-18T04:14:06.434Z,99530.19
2023-09-18T04:16:36.663Z,99513.59
2023-09-18T04:19:05.245Z,99520.41
2023-09-18T04:21:32.568Z,99519.59
2023-09-18T04:23:59.887Z,99517.44
2023-09-18T04:26:30.961Z,99519.06
2023-09-18T04:28:59.489Z,99511.19
2023-09-18T04:31:29.664Z,99515.78
2023-09-18T04:33:57.373Z,99513.63
2023-09-18T04:36:25.992Z,99520.94
2023-09-18T04:38:53.887Z,99517.72
2023-09-18T04:41:21.450Z,99516.88
2023-09-18T04:43:48.696Z,99506.00
2023-09-18T04:46:16.091Z,99507.06
2023-09-18T04:48:43.606Z,99510.31
2023-09-18T04:51:10.683Z,99509.22
2023-09-18T04:53:38.118Z,99503.25
2023-09-18T04:56:05.494Z,99517.38
2023-09-18T04:58:33.467Z,99504.03
2023-09-18T05:01:01.679Z,99512.75
2023-09-18T05:03:30.482Z,99509.75
2023-09-18T05:05:58.526Z,99511.38
2023-09-18T05:08:25.888Z,99517.91
2023-09-18T05:10:53.275Z,99517.59
2023-09-18T05:13:20.519Z,99517.28
2023-09-18T05:15:47.609Z,99521.63
2023-09-18T05:18:14.807Z,99519.44
2023-09-18T05:20:42.086Z,99525.16
2023-09-18T05:23:11.012Z,99532.75
2023-09-18T05:25:39.883Z,99535.50
2023-09-18T05:28:07.024Z,99528.69
2023-09-18T05:30:36.429Z,99533.56
2023-09-18T05:33:07.778Z,99537.66
2023-09-18T05:35:37.975Z,99530.81
2023-09-18T05:38:05.206Z,99535.72
2023-09-18T05:40:33.173Z,99531.31
2023-09-18T05:43:00.781Z,99531.34
2023-09-18T05:45:29.447Z,99532.94
2023-09-18T05:48:03.799Z,99539.44
2023-09-18T05:50:33.381Z,99539.41
2023-09-18T05:53:01.644Z,99538.84
2023-09-18T05:55:29.086Z,99539.91
2023-09-18T05:57:56.468Z,99536.09
2023-09-18T06:00:24.014Z,99534.66
2023-09-18T06:02:54.677Z,99532.72
2023-09-18T06:05:25.932Z,99530.75
2023-09-18T06:07:54.316Z,99528.81
2023-09-18T06:10:22.314Z,99532.63
2023-09-18T06:12:49.407Z,99524.72
2023-09-18T06:15:16.638Z,99526.78
2023-09-18T06:17:45.182Z,99528.59
2023-09-18T06:20:17.460Z,99522.56
2023-09-18T06:22:45.009Z,99517.56
2023-09-18T06:25:12.330Z,99524.84
2023-09-18T06:27:40.106Z,99528.31
2023-09-18T06:30:08.373Z,99512.63
2023-09-18T06:32:35.703Z,99518.25
2023-09-18T06:35:02.905Z,99527.47
2023-09-18T06:37:33.364Z,99524.66
2023-09-18T06:40:00.438Z,99530.66
2023-09-18T06:42:27.484Z,99538.78
2023-09-18T06:44:59.671Z,99552.41
2023-09-18T06:47:27.046Z,99543.09
2023-09-18T06:49:54.163Z,99550.78
2023-09-18T06:52:21.385Z,99528.66
2023-09-18T06:54:49.069Z,99529.72
2023-09-18T06:57:16.173Z,99532.38
2023-09-18T06:59:43.361Z,99545.91
2023-09-18T07:02:11.101Z,99549.69
2023-09-18T07:04:38.281Z,99542.00
2023-09-18T07:07:05.690Z,99542.97
2023-09-18T07:09:34.724Z,99550.69
2023-09-18T07:12:04.573Z,99543.84
2023-09-18T07:14:32.209Z,99539.47
2023-09-18T07:17:00.282Z,99551.31
2023-09-18T07:19:27.420Z,99552.13
2023-09-18T07:21:54.570Z,99554.41
2023-09-18T07:24:21.867Z,99561.56
2023-09-18T07:26:49.558Z,99566.53
2023-09-18T07:29:17.544Z,99569.88
2023-09-18T07:31:45.009Z,99563.59
2023-09-18T07:34:14.300Z,99558.63
2023-09-18T07:36:42.091Z,99562.13
2023-09-18T07:39:09.139Z,99561.22
2023-09-18T07:41:36.334Z,99558.69
2023-09-18T07:44:03.423Z,99569.56
2023-09-18T07:46:30.874Z,99570.09
2023-09-18T07:48:58.021Z,99575.28
2023-09-18T07:51:25.145Z,99567.81
2023-09-18T07:53:52.345Z,99566.03
2023-09-18T07:56:20.420Z,99569.94
2023-09-18T07:58:48.238Z,99578.91
2023-09-18T08:01:17.415Z,99586.56
2023-09-18T08:03:44.797Z,99569.75
2023-09-18T08:06:12.973Z,99577.66
2023-09-18T08:08:40.917Z,99556.09
2023-09-18T08:11:12.467Z,99568.88
2023-09-18T08:13:39.648Z,99579.53
2023-09-18T08:16:08.580Z,99588.00
2023-09-18T08:18:36.478Z,99583.00
2023-09-18T08:21:03.992Z,99588.81
2023-09-18T08:23:31.431Z,99588.59
2023-09-18T08:25:59.476Z,99586.47
2023-09-18T08:28:26.790Z,99585.13
2023-09-18T08:30:53.860Z,99579.97
2023-09-18T08:33:21.695Z,99587.88
2023-09-18T08:35:51.890Z,99578.53
2023-09-18T08:38:21.526Z,99578.16
2023-09-18T08:40:48.933Z,99574.47
2023-09-18T08:43:18.693Z,99581.31
2023-09-18T08:45:57.037Z,99583.09
2023-09-18T08:48:25.840Z,99576.75
2023-09-18T08:50:53.113Z,99569.75
2023-09-18T08:53:23.112Z,99568.72
2023-09-18T08:55:50.212Z,99568.03
2023-09-18T08:58:20.738Z,99563.13
2023-09-18T09:00:47.864Z,99567.41
2023-09-18T09:03:15.856Z,99579.59
2023-09-18T09:05:55.408Z,99574.31
2023-09-18T09:08:47.660Z,99571.88
2023-09-18T09:11:15.081Z,99570.25
2023-09-18T09:13:46.712Z,99566.47
2023-09-18T09:16:15.120Z,99587.69
2023-09-18T09:18:50.773Z,99587.88
2023-09-18T09:21:18.646Z,99591.22
2023-09-18T09:23:55.349Z,99584.72
2023-09-18T09:26:24.356Z,99581.81
2023-09-18T09:28:52.595Z,99594.19
2023-09-18T09:31:30.096Z,99591.53
2023-09-18T09:33:58.933Z,99595.78
2023-09-18T09:36:26.186Z,99601.34
2023-09-18T09:39:00.265Z,99601.44
2023-09-18T09:41:35.517Z,99588.00
2023-09-18T09:44:03.223Z,99563.16
2023-09-18T09:46:32.505Z,99580.97
2023-09-18T09:49:00.637Z,99576.72
2023-09-18T09:51:28.226Z,99577.25
2023-09-18T09:53:55.473Z,99585.63
2023-09-18T09:56:23.512Z,99583.81
2023-09-18T09:59:05.340Z,99580.06
2023-09-18T10:01:32.980Z,99582.69
2023-09-18T10:04:01.769Z,99584.56
2023-09-18T10:06:31.836Z,99580.41
2023-09-18T10:08:59.890Z,99578.47
2023-09-18T10:11:29.030Z,99582.03
2023-09-18T10:14:09.077Z,99587.50
2023-09-18T10:16:38.053Z,99583.97
2023-09-18T10:19:39.215Z,99586.91
2023-09-18T10:22:38.825Z,99584.47
2023-09-18T10:25:19.836Z,99583.03
2023-09-18T10:27:53.987Z,99582.53
2023-09-18T10:30:24.831Z,99583.41
2023-09-18T10:32:54.944Z,99579.03
2023-09-18T10:35:22.497Z,99586.47
2023-09-18T10:37:52.878Z,99577.69
2023-09-18T10:40:26.577Z,99572.78
2023-09-18T10:42:58.465Z,99586.00
2023-09-18T10:45:26.135Z,99580.78
2023-09-18T10:47:54.770Z,99588.69
2023-09-18T10:50:26.623Z,99586.72
2023-09-18T10:52:54.662Z,99573.06
2023-09-18T10:55:25.293Z,99578.50
2023-09-18T10:57:58.736Z,99572.91
2023-09-18T11:00:28.853Z,99571.59
2023-09-18T11:03:12.617Z,99571.22
2023-09-18T11:05:42.323Z,99569.16
2023-09-18T11:08:29.548Z,99573.78
2023-09-18T11:11:05.758Z,99573.63
2023-09-18T11:13:55.463Z,99569.47
2023-09-18T11:16:28.536Z,99573.72
2023-09-18T11:18:56.003Z,99564.81
2023-09-18T11:21:28.475Z,99564.19
2023-09-18T11:24:12.569Z,99569.34
2023-09-18T11:26:44.169Z,99565.47
2023-09-18T11:29:16.758Z,99570.81
2023-09-18T11:31:44.775Z,99569.97
2023-09-18T11:34:17.004Z,99579.97
2023-09-18T11:36:44.440Z,99579.31
2023-09-18T11:39:13.094Z,99573.13
2023-09-18T11:41:41.303Z,99576.31
2023-09-18T11:44:20.862Z,99575.66
2023-09-18T11:46:53.420Z,99574.28
2023-09-18T11:49:24.255Z,99578.25
2023-09-18T11:51:52.263Z,99576.72
2023-09-18T11:54:20.030Z,99577.59
2023-09-18T11:56:47.483Z,99579.47
2023-09-18T11:59:14.617Z,99581.88
2023-09-18T12:01:41.999Z,99578.94
2023-09-18T12:04:10.246Z,99586.75
2023-09-18T12:06:37.647Z,99585.28
2023-09-18T12:09:05.391Z,99589.88
2023-09-18T12:11:35.948Z,99593.91
2023-09-18T12:14:05.570Z,99581.88
2023-09-18T12:16:40.471Z,99585.16
2023-09-18T12:19:08.503Z,99594.59
2023-09-18T12:21:43.129Z,99593.03
2023-09-18T12:24:23.966Z,99599.34
2023-09-18T12:26:52.873Z,99599.16
2023-09-18T12:29:21.284Z,99588.81
2023-09-18T12:31:49.906Z,99589.41
2023-09-18T12:34:22.934Z,99595.31
2023-09-18T12:36:52.391Z,99591.25
2023-09-18T12:39:20.225Z,99588.09
2023-09-18T12:41:48.631Z,99590.94
2023-09-18T12:44:17.905Z,99595.31
2023-09-18T12:46:47.821Z,99594.28
2023-09-18T12:49:29.323Z,99599.53
2023-09-18T12:51:58.311Z,99593.03
2023-09-18T12:54:55.493Z,99585.69
2023-09-18T12:57:23.079Z,99580.56
2023-09-18T12:59:55.486Z,99585.28
2023-09-18T13:02:29.355Z,99584.34
2023-09-18T13:04:57.874Z,99596.06
2023-09-18T13:07:25.631Z,99586.84
2023-09-18T13:10:05.361Z,99584.31
2023-09-18T13:12:41.963Z,99594.88
2023-09-18T13:15:13.742Z,99596.25
2023-09-18T13:17:46.584Z,99592.13
2023-09-18T13:20:24.391Z,99589.56
2023-09-18T13:22:53.175Z,99586.84
2023-09-18T13:25:43.940Z,99591.94
2023-09-18T13:28:13.201Z,99591.13
2023-09-18T13:30:42.231Z,99594.38
2023-09-18T13:33:11.977Z,99580.00
2023-09-18T13:35:42.670Z,99584.25
2023-09-18T13:38:12.227Z,99580.31
2023-09-18T13:40:40.666Z,99579.78
2023-09-18T13:43:09.537Z,99580.19
2023-09-18T13:45:37.376Z,99581.41
2023-09-18T13:48:06.153Z,99578.13
2023-09-18T13:50:34.744Z,99575.28
2023-09-18T13:53:05.619Z,99579.44
2023-09-18T13:55:33.632Z,99573.31
2023-09-18T13:58:01.443Z,99567.03
2023-09-18T14:00:40.837Z,99572.81
2023-09-18T14:03:09.678Z,99562.72
2023-09-18T14:05:36.905Z,99569.16
2023-09-18T14:08:05.328Z,99563.38
2023-09-18T14:10:32.650Z,99566.81
2023-09-18T14:12:59.872Z,99567.97
2023-09-18T14:15:27.240Z,99571.16
2023-09-18T14:17:55.600Z,99557.16
2023-09-18T14:20:23.084Z,99563.94
2023-09-18T14:22:51.322Z,99563.81
2023-09-18T14:25:21.586Z,99567.78
2023-09-18T14:27:49.929Z,99565.44
2023-09-18T14:30:17.743Z,99577.09
2023-09-18T14:32:45.182Z,99578.66
2023-09-18T14:35:12.665Z,99561.59
2023-09-18T14:37:40.017Z,99560.56
2023-09-18T14:40:11.669Z,99564.78
2023-09-18T14:42:39.149Z,99563.28
2023-09-18T14:45:06.942Z,99569.75
2023-09-18T14:47:34.160Z,99568.75
2023-09-18T14:50:02.742Z,99578.25
2023-09-18T14:52:33.427Z,99585.25
2023-09-18T14:55:01.552Z,99583.75
2023-09-18T14:57:32.241Z,99582.94
2023-09-18T14:59:59.597Z,99573.94
2023-09-18T15:02:31.211Z,99570.41
2023-09-18T15:04:59.909Z,99567.47
2023-09-18T15:07:26.879Z,99570.66
2023-09-18T15:09:53.947Z,99568.94
2023-09-18T15:12:21.035Z,99569.13
2023-09-18T15:14:48.368Z,99578.78
2023-09-18T15:17:16.240Z,99568.44
2023-09-18T15:19:44.001Z,99575.47
2023-09-18T15:22:11.615Z,99572.28
2023-09-18T15:24:39.014Z,99580.84
2023-09-18T15:27:06.954Z,99585.38
2023-09-18T15:29:35.751Z,99585.22
2023-09-18T15:32:06.375Z,99582.88
2023-09-18T15:34:34.378Z,99584.88
2023-09-18T15:37:05.436Z,99592.88
2023-09-18T15:39:36.648Z,99582.03
2023-09-18T15:42:04.396Z,99582.38
2023-09-18T15:44:31.760Z,99583.28
2023-09-18T15:46:59.008Z,99582.25
2023-09-18T15:49:26.929Z,99584.19
2023-09-18T15:51:54.115Z,99585.88
2023-09-18T15:54:21.533Z,99586.50
2023-09-18T15:56:50.466Z,99574.81
2023-09-18T15:59:18.200Z,99584.91
2023-09-18T16:01:47.870Z,99587.97
2023-09-18T16:04:15.044Z,99582.00
2023-09-18T16:06:42.268Z,99585.03
2023-09-18T16:09:11.364Z,99583.41
2023-09-18T16:11:38.532Z,99590.78
2023-09-18T16:14:05.905Z,99585.09
2023-09-18T16:16:33.280Z,99577.47
2023-09-18T16:19:01.188Z,99583.78
2023-09-18T16:21:28.540Z,99588.38
2023-09-18T16:23:55.748Z,99587.59
2023-09-18T16:26:23.024Z,99582.97
2023-09-18T16:28:50.132Z,99585.44
2023-09-18T16:31:17.218Z,99583.53
2023-09-18T16:33:44.710Z,99580.84
2023-09-18T16:36:12.059Z,99580.53
2023-09-18T16:38:43.017Z,99581.91
2023-09-18T16:41:11.588Z,99587.09
2023-09-18T16:43:39.771Z,99585.16
2023-09-18T16:46:07.446Z,99582.47
2023-09-18T16:48:35.953Z,99581.63
2023-09-18T16:51:05.420Z,99580.56
2023-09-18T16:53:33.181Z,99579.75
2023-09-18T16:56:00.499Z,99583.00
2023-09-18T16:58:27.572Z,99575.38
2023-09-18T17:00:55.056Z,99580.28
2023-09-18T17:03:22.475Z,99574.56
2023-09-18T17:05:50.565Z,99577.03
2023-09-18T17:08:18.158Z,99580.56
2023-09-18T17:10:45.488Z,99577.31
2023-09-18T17:13:13.089Z,99574.28
2023-09-18T17:15:40.208Z,99588.16
2023-09-18T17:18:07.996Z,99583.53
2023-09-18T17:20:35.328Z,99576.72
2023-09-18T17:23:02.628Z,99588.97
2023-09-18T17:25:32.413Z,99586.25
2023-09-18T17:27:59.561Z,99597.13
2023-09-18T17:30:28.071Z,99600.41
2023-09-18T17:32:55.766Z,99590.88
2023-09-18T17:35:22.777Z,99589.50
2023-09-18T17:37:59.771Z,99603.66
2023-09-18T17:40:27.168Z,99602.25
2023-09-18T17:42:54.245Z,99597.38
2023-09-18T17:45:21.496Z,99604.72
2023-09-18T17:47:51.378Z,99611.50
2023-09-18T17:50:18.748Z,99605.50
2023-09-18T17:52:48.691Z,99610.94
2023-09-18T17:55:15.759Z,99610.69
2023-09-18T17:57:45.842Z,99600.59
2023-09-18T18:00:17.051Z,99607.94
2023-09-18T18:02:44.903Z,99606.88
2023-09-18T18:05:13.023Z,99621.53
2023-09-18T18:07:43.203Z,99609.31
2023-09-18T18:10:10.983Z,99615.56
2023-09-18T18:12:41.354Z,99610.38
2023-09-18T18:15:14.254Z,99613.38
2023-09-18T18:17:41.491Z,99608.19
2023-09-18T18:20:10.656Z,99607.94
2023-09-18T18:22:37.850Z,99610.66
2023-09-18T18:25:05.317Z,99605.50
2023-09-18T18:27:35.425Z,99601.41
2023-09-18T18:30:06.007Z,99602.22
2023-09-18T18:32:37.224Z,99600.31
2023-09-18T18:35:04.967Z,99602.47
2023-09-18T18:37:36.260Z,99595.38
2023-09-18T18:40:08.015Z,99603.81
2023-09-18T18:42:35.268Z,99603.00
2023-09-18T18:45:02.798Z,99602.19
2023-09-18T18:47:32.868Z,99607.06
2023-09-18T18:50:02.698Z,99588.03
2023-09-18T18:52:30.943Z,99596.72
2023-09-18T18:54:58.017Z,99593.19
2023-09-18T18:57:25.819Z,99586.94
2023-09-18T18:59:52.881Z,99585.31
2023-09-18T19:02:20.179Z,99598.63
2023-09-18T19:04:47.237Z,99591.56
2023-09-18T19:07:14.555Z,99596.19
2023-09-18T19:09:42.436Z,99589.09
2023-09-18T19:12:09.653Z,99595.38
2023-09-18T19:14:36.855Z,99591.81
2023-09-18T19:17:06.032Z,99584.22
2023-09-18T19:19:33.139Z,99586.66
2023-09-18T19:22:00.404Z,99586.91
2023-09-18T19:24:27.667Z,99587.72
2023-09-18T19:26:54.907Z,99585.56
2023-09-18T19:29:25.695Z,99583.91
2023-09-18T19:31:53.897Z,99591.25
2023-09-18T19:34:22.407Z,99593.16
2023-09-18T19:37:06.494Z,99591.78
2023-09-18T19:39:35.743Z,99598.53
2023-09-18T19:42:08.934Z,99589.34
2023-09-18T19:44:45.235Z,99588.47
2023-09-18T19:47:13.296Z,99596.09
2023-09-18T19:49:40.348Z,99586.56
2023-09-18T19:52:08.613Z,99595.53
2023-09-18T19:54:36.027Z,99593.63
2023-09-18T19:57:03.112Z,99589.56
2023-09-18T19:59:30.318Z,99595.00
2023-09-18T20:01:59.845Z,99596.06
2023-09-18T20:04:26.997Z,99602.31
2023-09-18T20:06:54.790Z,99596.06
2023-09-18T20:09:24.116Z,99612.38
2023-09-18T20:11:52.477Z,99606.66
2023-09-18T20:14:31.134Z,99606.41
2023-09-18T20:16:59.709Z,99604.25
2023-09-18T20:19:26.727Z,99597.22
2023-09-18T20:21:54.717Z,99593.16
2023-09-18T20:24:21.934Z,99590.16
2023-09-18T20:26:49.926Z,99590.16
2023-09-18T20:29:18.997Z,99589.91
2023-09-18T20:31:48.858Z,99590.19
2023-09-18T20:34:16.253Z,99597.25
2023-09-18T20:36:43.358Z,99597.53
2023-09-18T20:39:20.720Z,99593.72
2023-09-18T20:42:35.011Z,99603.50
2023-09-18T20:45:06.214Z,99584.75
2023-09-18T20:47:34.156Z,99595.09
2023-09-18T20:50:02.651Z,99595.34
2023-09-18T20:52:31.385Z,99594.53
2023-09-18T20:54:59.238Z,99597.25
2023-09-18T20:57:26.627Z,99595.88
2023-09-18T20:59:55.401Z,99591.53
2023-09-18T21:02:22.895Z,99594.50
2023-09-18T21:04:50.334Z,99591.25
2023-09-18T21:07:18.393Z,99586.09
2023-09-18T21:09:45.852Z,99589.34
2023-09-18T21:12:13.484Z,99582.50
2023-09-18T21:14:41.811Z,99596.91
2023-09-18T21:17:09.076Z,99585.50
2023-09-18T21:19:36.413Z,99584.66
2023-09-18T21:22:04.151Z,99585.75
2023-09-18T21:24:31.390Z,99581.41
2023-09-18T21:26:58.580Z,99580.59
2023-09-18T21:29:28.605Z,99583.53
2023-09-18T21:34:25.959Z,99590.88
2023-09-18T21:36:53.204Z,99592.22
2023-09-18T21:39:21.851Z,99588.69
2023-09-18T21:41:48.953Z,99589.47
2023-09-18T21:44:16.690Z,99587.31
2023-09-18T21:46:44.785Z,99591.13
2023-09-18T21:49:12.754Z,99600.34
2023-09-18T21:51:40.152Z,99604.16
2023-09-18T21:54:11.813Z,99604.41
2023-09-18T21:56:39.296Z,99594.91
2023-09-18T21:59:07.265Z,99591.38
2023-09-18T22:01:36.144Z,99601.41
2023-09-18T22:04:07.031Z,99598.44
2023-09-18T22:06:34.793Z,99600.06
2023-09-18T22:09:02.187Z,99596.25
2023-09-18T22:11:31.187Z,99599.81
2023-09-18T22:13:58.228Z,99597.63
2023-09-18T22:16:25.431Z,99597.91
2023-09-18T22:18:52.888Z,99605.00
2023-09-18T22:21:21.067Z,99600.38
2023-09-18T22:23:48.965Z,99600.91
2023-09-18T22:26:16.987Z,99599.34
2023-09-18T22:28:44.685Z,99598.00
2023-09-18T22:31:20.130Z,99602.13
2023-09-18T22:33:48.475Z,99600.22
2023-09-18T22:36:26.709Z,99601.88
2023-09-18T22:39:10.909Z,99601.34
2023-09-18T22:41:40.028Z,99601.13
2023-09-18T22:44:45.103Z,99593.00
2023-09-18T22:47:51.550Z,99588.66
2023-09-18T22:50:57.058Z,99597.94
2023-09-18T22:53:26.778Z,99594.69
2023-09-18T22:55:56.215Z,99595.22
2023-09-18T23:00:53.926Z,99591.69
2023-09-18T23:03:21.895Z,99584.06
2023-09-18T23:05:49.714Z,99584.63
2023-09-18T23:08:16.885Z,99586.28
2023-09-18T23:10:45.135Z,99586.81
2023-09-18T23:13:12.962Z,99589.56
2023-09-18T23:15:40.275Z,99583.28
2023-09-18T23:18:08.142Z,99583.00
2023-09-18T23:20:36.951Z,99581.66
2023-09-18T23:23:05.315Z,99580.03
2023-09-18T23:25:35.015Z,99572.94
2023-09-18T23:28:04.470Z,99569.69
2023-09-18T23:30:32.110Z,99580.56
2023-09-18T23:33:01.858Z,99588.19
2023-09-18T23:35:34.236Z,99587.09
2023-09-18T23:38:05.041Z,99580.28
2023-09-18T23:40:34.236Z,99580.28
2023-09-18T23:43:06.544Z,99573.75
2023-09-18T23:45:39.403Z,99575.13
2023-09-18T23:48:14.794Z,99572.66
2023-09-18T23:50:53.130Z,99578.63
2023-09-18T23:53:22.107Z,99577.84
2023-09-18T23:55:53.722Z,99575.94
2023-09-18T23:58:23.769Z,99577.03
